Time;durP1;ratioP1;P1;durP2;ratioP2;P2;SDS_P1;SDS_P2;PMS_P1;PMS_P2;Temp;Humidity;BMP_temperature;BMP_pressure;BME280_temperature;BME280_humidity;BME280_pressure;Samples;Min_cycle;Max_cycle;Signal;HPM_P1;HPM_P2
2021/12/03 00:01:40;;;;;;;;;3.75;3.00;;;;;20.39;37.78;101121.03;5076699;27;51376;-42
2021/12/03 00:04:05;;;;;;;;;5.25;5.25;;;;;20.38;37.84;101121.25;5077114;27;51237;-41
2021/12/03 00:06:35;;;;;;;;;4.25;4.25;;;;;20.37;37.62;101122.31;5076456;27;52176;-41
2021/12/03 00:09:00;;;;;;;;;4.00;4.00;;;;;20.34;37.87;101112.59;5076868;27;51188;-41
2021/12/03 00:11:26;;;;;;;;;4.00;3.75;;;;;20.33;37.63;101108.16;5076865;27;51398;-41
2021/12/03 00:13:51;;;;;;;;;4.50;3.50;;;;;20.31;37.68;101113.00;5076864;27;51352;-42
2021/12/03 00:16:17;;;;;;;;;5.00;5.00;;;;;20.30;37.75;101121.47;5076587;27;51018;-45
2021/12/03 00:18:43;;;;;;;;;5.25;5.25;;;;;20.28;37.94;101120.84;5092641;27;51281;-42
2021/12/03 00:21:11;;;;;;;;;4.50;4.50;;;;;20.27;37.83;101124.66;5076003;27;51099;-42
2021/12/03 00:23:37;;;;;;;;;5.00;4.50;;;;;20.25;37.61;101127.63;5076703;27;51097;-43
2021/12/03 00:26:04;;;;;;;;;2.75;2.25;;;;;20.24;37.86;101133.34;5077835;27;51698;-42
2021/12/03 00:28:31;;;;;;;;;7.50;4.50;;;;;20.24;37.88;101133.34;5097067;27;51018;-41
2021/12/03 00:30:57;;;;;;;;;3.75;3.00;;;;;20.21;37.71;101125.50;5095096;27;51118;-41
2021/12/03 00:33:23;;;;;;;;;5.50;3.00;;;;;20.19;37.81;101129.31;5076614;27;50967;-42
2021/12/03 00:35:48;;;;;;;;;6.00;4.50;;;;;20.18;37.71;101127.63;5076353;27;50915;-42
2021/12/03 00:38:15;;;;;;;;;5.25;3.50;;;;;20.16;37.79;101121.50;5076270;27;50959;-42
2021/12/03 00:40:41;;;;;;;;;6.00;5.00;;;;;20.17;37.88;101122.34;5076188;27;51316;-43
2021/12/03 00:43:07;;;;;;;;;4.00;3.75;;;;;20.15;37.37;101121.72;5075552;28;51405;-41
2021/12/03 00:45:33;;;;;;;;;5.00;4.00;;;;;20.13;37.61;101116.44;5095851;27;52058;-41
2021/12/03 00:48:00;;;;;;;;;3.50;3.00;;;;;20.11;37.61;101126.81;5097055;27;50971;-42
2021/12/03 00:50:26;;;;;;;;;5.00;3.75;;;;;20.11;37.52;101123.19;5096936;27;51139;-42
2021/12/03 00:52:52;;;;;;;;;4.00;4.00;;;;;20.08;37.47;101120.88;5078183;27;51138;-40
2021/12/03 00:55:19;;;;;;;;;4.25;3.25;;;;;20.07;37.58;101133.78;5084775;27;52911;-42
2021/12/03 00:57:44;;;;;;;;;5.00;4.00;;;;;20.07;37.78;101136.53;5085549;27;50975;-43
2021/12/03 01:00:25;;;;;;;;;7.50;4.50;;;;;20.06;37.55;101137.59;5080267;27;51042;-42
2021/12/03 01:02:53;;;;;;;;;4.75;4.75;;;;;20.05;37.83;101135.06;5101984;27;51005;-43
2021/12/03 01:05:19;;;;;;;;;4.00;3.50;;;;;20.03;38.01;101135.28;5089903;27;51258;-42
2021/12/03 01:07:44;;;;;;;;;5.00;3.25;;;;;20.03;37.82;101145.44;5099574;27;51003;-43
2021/12/03 01:10:10;;;;;;;;;3.50;3.50;;;;;20.00;37.69;101143.94;5100554;27;50912;-42
2021/12/03 01:12:37;;;;;;;;;4.00;4.00;;;;;20.00;37.62;101146.69;5085111;27;51039;-42
2021/12/03 01:15:06;;;;;;;;;4.25;3.00;;;;;19.99;37.85;101144.16;5086669;27;51926;-43
2021/12/03 01:17:31;;;;;;;;;6.75;3.25;;;;;19.98;37.87;101148.81;5100015;27;51266;-44
2021/12/03 01:19:59;;;;;;;;;4.00;4.00;;;;;19.96;37.45;101156.41;5099977;27;51207;-42
2021/12/03 01:22:25;;;;;;;;;6.00;5.00;;;;;19.96;37.46;101150.91;5091359;27;51017;-44
2021/12/03 01:24:50;;;;;;;;;3.75;3.75;;;;;19.95;37.83;101151.97;5079283;27;50930;-43
2021/12/03 01:27:15;;;;;;;;;4.25;4.25;;;;;19.94;37.70;101152.19;5081937;27;50972;-43
2021/12/03 01:29:41;;;;;;;;;4.75;4.75;;;;;19.94;37.71;101160.44;5079425;27;51016;-42
2021/12/03 01:32:07;;;;;;;;;6.00;3.25;;;;;19.92;37.59;101171.66;5079139;27;51323;-41
2021/12/03 01:34:32;;;;;;;;;5.25;4.25;;;;;19.91;37.93;101164.47;5078816;27;51724;-45
2021/12/03 01:36:57;;;;;;;;;5.50;4.25;;;;;19.91;37.76;101160.88;5094925;27;51105;-42
2021/12/03 01:39:23;;;;;;;;;4.25;3.75;;;;;19.88;38.02;101162.97;5078998;27;51207;-42
2021/12/03 01:41:48;;;;;;;;;5.75;4.00;;;;;19.87;37.50;101157.69;5095849;27;51001;-41
2021/12/03 01:44:14;;;;;;;;;4.00;4.00;;;;;19.87;37.62;101160.44;5078931;27;52006;-41
2021/12/03 01:46:40;;;;;;;;;5.00;5.00;;;;;19.86;37.56;101153.25;5079442;27;51176;-43
2021/12/03 01:49:09;;;;;;;;;3.00;3.00;;;;;19.85;37.86;101159.81;5095112;27;50987;-43
2021/12/03 01:51:34;;;;;;;;;2.00;2.00;;;;;19.84;37.46;101164.47;5097612;27;51031;-41
2021/12/03 01:54:00;;;;;;;;;6.75;2.50;;;;;19.83;37.81;101167.41;5079315;27;51184;-43
2021/12/03 01:56:25;;;;;;;;;4.25;4.25;;;;;19.83;37.55;101176.50;5095016;27;50985;-42
2021/12/03 01:58:52;;;;;;;;;5.75;4.00;;;;;19.83;37.64;101172.91;5078684;27;51099;-43
2021/12/03 02:01:21;;;;;;;;;6.50;3.25;;;;;19.81;37.90;101172.28;5079182;27;51218;-41
2021/12/03 02:03:50;;;;;;;;;4.00;3.00;;;;;19.81;37.98;101186.03;5086378;27;51392;-39
2021/12/03 02:06:16;;;;;;;;;3.25;2.25;;;;;19.79;37.84;101177.97;5094833;27;51129;-42
2021/12/03 02:08:42;;;;;;;;;4.00;3.25;;;;;19.79;37.81;101168.88;5103488;27;51121;-46
2021/12/03 02:11:10;;;;;;;;;5.25;4.00;;;;;19.79;38.17;101169.72;5094503;27;51192;-42
2021/12/03 02:13:36;;;;;;;;;4.00;4.00;;;;;19.79;38.25;101171.63;5087878;27;50907;-44
2021/12/03 02:16:02;;;;;;;;;4.25;3.25;;;;;19.78;38.12;101178.19;5098070;27;50922;-42
2021/12/03 02:18:28;;;;;;;;;2.25;2.25;;;;;19.77;37.84;101169.09;5088709;27;50931;-42
2021/12/03 02:20:57;;;;;;;;;5.00;3.25;;;;;19.75;37.85;101157.47;5091000;27;51054;-42
2021/12/03 02:23:23;;;;;;;;;3.00;3.00;;;;;19.75;37.92;101165.72;5078816;27;50984;-43
2021/12/03 02:25:49;;;;;;;;;5.25;4.00;;;;;19.74;37.96;101164.03;5078740;27;50916;-43
2021/12/03 02:28:17;;;;;;;;;5.25;4.00;;;;;19.74;37.98;101168.69;5078278;28;51035;-42
2021/12/03 02:30:44;;;;;;;;;4.25;3.00;;;;;19.73;37.98;101173.31;5078773;27;51284;-41
2021/12/03 02:33:11;;;;;;;;;3.00;3.00;;;;;19.73;37.54;101164.25;5077604;27;52089;-43
2021/12/03 02:35:40;;;;;;;;;3.00;3.00;;;;;19.72;37.78;101162.56;5079287;27;51097;-41
2021/12/03 02:38:06;;;;;;;;;3.00;3.00;;;;;19.72;37.76;101165.28;5078214;27;51110;-43
2021/12/03 02:40:31;;;;;;;;;4.75;3.00;;;;;19.70;37.77;101164.66;5090942;27;51252;-42
2021/12/03 02:42:57;;;;;;;;;3.75;3.75;;;;;19.70;37.89;101164.66;5090329;27;50871;-41
2021/12/03 02:45:23;;;;;;;;;4.25;4.00;;;;;19.69;37.72;101171.19;5078237;27;50963;-42
2021/12/03 02:47:49;;;;;;;;;4.50;3.00;;;;;19.68;37.70;101161.25;5092874;27;50949;-43
2021/12/03 02:50:15;;;;;;;;;4.00;3.25;;;;;19.68;38.05;101173.09;5093788;27;51043;-41
2021/12/03 02:52:42;;;;;;;;;3.50;2.75;;;;;19.67;37.86;101163.16;5076724;28;54266;-41
2021/12/03 02:55:08;;;;;;;;;3.00;3.00;;;;;19.65;37.63;101154.28;5077026;27;51110;-41
2021/12/03 02:57:34;;;;;;;;;4.00;3.00;;;;;19.65;37.99;101146.03;5077919;27;51141;-42
2021/12/03 02:59:59;;;;;;;;;2.00;2.00;;;;;19.65;37.93;101142.44;5081078;27;51176;-41
2021/12/03 03:02:25;;;;;;;;;4.00;3.00;;;;;19.64;37.80;101149.84;5098141;27;51004;-42
2021/12/03 03:04:51;;;;;;;;;5.25;3.00;;;;;19.63;37.61;101122.56;5085267;27;51039;-43
2021/12/03 03:07:16;;;;;;;;;3.25;3.25;;;;;19.60;37.85;101118.34;5098155;27;50853;-41
2021/12/03 03:09:44;;;;;;;;;3.75;3.00;;;;;19.60;37.82;101123.84;5097863;27;51334;-41
2021/12/03 03:12:11;;;;;;;;;2.75;2.75;;;;;19.59;37.61;101125.75;5077765;27;51815;-41
2021/12/03 03:14:46;;;;;;;;;3.50;3.00;;;;;19.59;37.98;101122.13;5076232;27;51016;-41
2021/12/03 03:17:13;;;;;;;;;4.75;4.00;;;;;19.58;37.88;101117.69;5077873;27;50947;-49
2021/12/03 03:19:38;;;;;;;;;3.00;2.25;;;;;19.57;38.09;101114.09;5086191;27;51142;-42
2021/12/03 03:22:04;;;;;;;;;3.00;2.00;;;;;19.56;38.04;101117.91;5095576;27;51910;-42
2021/12/03 03:24:30;;;;;;;;;3.00;3.00;;;;;19.55;37.94;101118.09;5079768;27;51087;-41
2021/12/03 03:26:55;;;;;;;;;3.25;3.25;;;;;19.56;37.89;101109.66;5084684;27;50924;-41
2021/12/03 03:29:21;;;;;;;;;4.75;4.00;;;;;19.55;37.69;101112.59;5078468;27;50895;-43
2021/12/03 03:31:47;;;;;;;;;5.25;3.00;;;;;19.54;37.87;101120.00;5077190;27;52713;-44
2021/12/03 03:34:12;;;;;;;;;3.25;2.75;;;;;19.53;37.93;101118.31;5077024;28;51041;-41
2021/12/03 03:36:42;;;;;;;;;3.00;3.00;;;;;19.53;37.98;101122.97;5077670;27;51021;-41
2021/12/03 03:39:10;;;;;;;;;2.75;2.75;;;;;19.52;37.70;101115.78;5077545;27;51255;-42
2021/12/03 03:41:35;;;;;;;;;3.00;3.00;;;;;19.51;37.92;101120.41;5077428;27;52221;-42
2021/12/03 03:44:01;;;;;;;;;3.00;2.25;;;;;19.51;37.90;101116.81;5077079;27;50941;-41
2021/12/03 03:46:27;;;;;;;;;3.25;3.25;;;;;19.50;37.71;101115.13;5077382;27;50933;-42
2021/12/03 03:48:53;;;;;;;;;3.25;3.00;;;;;19.49;37.76;101117.03;5077516;27;51738;-41
2021/12/03 03:51:18;;;;;;;;;4.00;3.25;;;;;19.48;37.73;101119.97;5077292;28;51879;-58
2021/12/03 03:53:44;;;;;;;;;4.00;2.00;;;;;19.48;37.60;101129.06;5076825;28;50997;-41
2021/12/03 03:56:10;;;;;;;;;2.00;2.00;;;;;19.47;37.89;101121.88;5082281;27;50943;-41
2021/12/03 03:58:41;;;;;;;;;2.25;2.25;;;;;19.46;37.87;101120.19;5094615;27;51259;-43
2021/12/03 04:01:08;;;;;;;;;3.25;2.00;;;;;19.45;37.76;101118.50;5076848;27;51675;-41
2021/12/03 04:03:34;;;;;;;;;2.00;2.00;;;;;19.45;37.78;101109.41;5083785;27;51228;-41
2021/12/03 04:06:00;;;;;;;;;3.00;3.00;;;;;19.44;37.95;101103.06;5080796;27;51039;-41
2021/12/03 04:08:29;;;;;;;;;2.00;2.00;;;;;19.43;38.02;101115.13;5077279;27;51399;-42
2021/12/03 04:10:56;;;;;;;;;4.00;3.00;;;;;19.41;37.78;101109.00;5077019;28;51705;-41
2021/12/03 04:13:21;;;;;;;;;1.50;1.50;;;;;19.40;38.02;101104.56;5077181;27;50922;-47
2021/12/03 04:15:47;;;;;;;;;2.00;2.00;;;;;19.41;37.74;101106.25;5082001;27;50834;-41
2021/12/03 04:18:12;;;;;;;;;4.00;4.00;;;;;19.40;37.62;101101.81;5097573;27;50925;-41
2021/12/03 04:20:38;;;;;;;;;2.75;2.75;;;;;19.38;37.63;101092.91;5096696;27;50949;-48
2021/12/03 04:23:03;;;;;;;;;2.00;2.00;;;;;19.39;37.57;101088.28;5097299;27;50923;-41
2021/12/03 04:25:29;;;;;;;;;4.00;3.25;;;;;19.38;37.84;101094.81;5083173;27;51135;-42
2021/12/03 04:27:54;;;;;;;;;2.00;2.00;;;;;19.38;37.74;101100.28;5094640;27;51289;-46
2021/12/03 04:30:24;;;;;;;;;3.25;3.25;;;;;19.37;37.73;101110.44;5091901;27;51756;-43
2021/12/03 04:32:51;;;;;;;;;2.00;2.00;;;;;19.35;37.85;101112.56;5094327;27;51395;-41
2021/12/03 04:35:17;;;;;;;;;2.50;2.50;;;;;19.34;37.79;101113.63;5079135;27;51136;-44
2021/12/03 04:37:43;;;;;;;;;2.25;2.00;;;;;19.35;37.69;101108.97;5090436;27;50999;-41
2021/12/03 04:40:11;;;;;;;;;2.00;2.00;;;;;19.33;37.85;101088.06;5081033;27;52492;-41
2021/12/03 04:42:36;;;;;;;;;3.25;2.00;;;;;19.32;37.80;101094.59;5095412;27;51306;-41
2021/12/03 04:45:05;;;;;;;;;2.75;2.75;;;;;19.32;37.62;101105.59;5091648;27;51102;-45
2021/12/03 04:47:30;;;;;;;;;4.00;2.50;;;;;19.32;37.78;101091.00;5080812;27;51046;-42
2021/12/03 04:49:55;;;;;;;;;4.75;1.25;;;;;19.31;37.56;101095.66;5079669;27;51922;-50
2021/12/03 04:52:21;;;;;;;;;3.25;2.25;;;;;19.30;37.73;101091.22;5090194;27;50932;-60
2021/12/03 04:54:46;;;;;;;;;2.25;2.25;;;;;19.29;37.73;101091.44;5096980;27;51083;-42
2021/12/03 04:57:12;;;;;;;;;2.75;2.75;;;;;19.29;37.76;101085.94;5080382;28;51200;-41
2021/12/03 04:59:37;;;;;;;;;2.00;2.00;;;;;19.28;37.98;101095.25;5079818;28;51942;-45
2021/12/03 05:02:03;;;;;;;;;2.00;2.00;;;;;19.27;37.48;101105.34;5100432;27;51070;-43
2021/12/03 05:04:36;;;;;;;;;3.25;1.00;;;;;19.27;37.74;101093.53;5116468;27;51042;-41
2021/12/03 05:07:16;;;;;;;;;2.00;2.00;;;;;19.26;37.86;101097.31;5082721;27;51583;-43
2021/12/03 05:09:42;;;;;;;;;2.00;2.00;;;;;19.24;37.65;101092.03;5079822;27;52044;-42
2021/12/03 05:12:08;;;;;;;;;2.00;2.00;;;;;19.25;37.47;101077.25;5084705;27;51116;-42
2021/12/03 05:14:34;;;;;;;;;3.25;2.75;;;;;19.24;37.76;101077.47;5099343;27;51130;-41
2021/12/03 05:16:59;;;;;;;;;1.25;1.25;;;;;19.23;37.56;101067.53;5079037;28;51217;-43
2021/12/03 05:19:24;;;;;;;;;3.50;3.00;;;;;19.22;37.65;101065.84;5079591;27;51004;-40
2021/12/03 05:21:50;;;;;;;;;3.00;3.00;;;;;19.21;37.63;101056.75;5079796;27;50965;-43
2021/12/03 05:24:16;;;;;;;;;1.75;1.00;;;;;19.21;37.62;101053.19;5079483;27;51558;-41
2021/12/03 05:26:44;;;;;;;;;2.00;1.00;;;;;19.20;37.73;101057.81;5079645;27;51174;-43
2021/12/03 05:29:10;;;;;;;;;2.25;2.25;;;;;19.19;37.46;101050.63;5079466;27;51198;-43
2021/12/03 05:31:37;;;;;;;;;3.25;2.50;;;;;19.20;37.85;101054.22;5079097;27;51097;-43
2021/12/03 05:34:04;;;;;;;;;1.75;1.75;;;;;19.19;37.44;101060.78;5096348;27;51066;-43
2021/12/03 05:36:30;;;;;;;;;3.00;2.00;;;;;19.18;37.91;101053.59;5090999;27;51181;-42
2021/12/03 05:38:55;;;;;;;;;1.75;1.50;;;;;19.18;37.60;101042.63;5081823;27;51920;-43
2021/12/03 05:41:21;;;;;;;;;3.00;2.00;;;;;19.16;37.61;101044.69;5098129;27;51062;-42
2021/12/03 05:43:47;;;;;;;;;3.75;2.00;;;;;19.16;37.69;101050.19;5093508;27;51334;-43
2021/12/03 05:46:13;;;;;;;;;2.25;1.00;;;;;19.15;37.71;101049.34;5092724;27;51068;-42
2021/12/03 05:48:38;;;;;;;;;2.50;1.50;;;;;19.15;37.62;101048.50;5081921;27;52682;-48
2021/12/03 05:51:04;;;;;;;;;1.50;1.00;;;;;19.14;37.72;101044.06;5080617;27;51143;-42
2021/12/03 05:53:29;;;;;;;;;1.00;1.00;;;;;19.13;37.76;101050.63;5085954;27;51207;-43
2021/12/03 05:55:55;;;;;;;;;2.50;1.00;;;;;19.13;37.66;101045.13;5078661;27;51123;-42
2021/12/03 05:58:20;;;;;;;;;2.00;2.00;;;;;19.12;37.60;101040.69;5087585;27;51502;-49
2021/12/03 06:00:47;;;;;;;;;3.25;2.50;;;;;19.11;37.71;101026.13;5083872;27;51355;-42
2021/12/03 06:03:13;;;;;;;;;1.75;1.75;;;;;19.11;37.64;101023.38;5079060;27;50971;-43
2021/12/03 06:05:40;;;;;;;;;3.25;1.50;;;;;19.10;37.64;101010.69;5079542;28;51065;-46
2021/12/03 06:08:06;;;;;;;;;2.00;1.00;;;;;19.10;37.67;101004.38;5078279;27;51808;-46
2021/12/03 06:10:33;;;;;;;;;1.00;1.00;;;;;19.10;37.56;101007.13;5079931;27;50914;-42
2021/12/03 06:12:58;;;;;;;;;2.00;2.00;;;;;19.09;37.56;101027.38;5078126;28;51051;-44
2021/12/03 06:15:24;;;;;;;;;5.75;3.50;;;;;19.08;36.90;101033.94;5078922;27;51183;-45
2021/12/03 06:17:50;;;;;;;;;5.50;4.75;;;;;19.06;36.21;101025.88;5078055;27;51025;-46
2021/12/03 06:20:17;;;;;;;;;6.50;6.00;;;;;19.02;35.80;101033.69;5077721;27;51122;-48
2021/12/03 06:22:42;;;;;;;;;6.00;6.00;;;;;18.99;35.50;101030.53;5064173;27;51072;-44
2021/12/03 06:25:10;;;;;;;;;7.00;5.50;;;;;18.95;35.52;101031.97;5076407;27;51175;-44
2021/12/03 06:27:36;;;;;;;;;6.00;5.00;;;;;18.90;34.96;101040.00;5078721;27;51839;-44
2021/12/03 06:30:06;;;;;;;;;7.00;5.00;;;;;18.84;34.74;101036.19;5077512;27;50985;-44
2021/12/03 06:32:31;;;;;;;;;5.25;5.25;;;;;18.79;34.57;101041.47;5078052;27;51126;-45
2021/12/03 06:34:57;;;;;;;;;7.00;3.50;;;;;18.73;34.10;101036.78;5073554;27;51093;-42
2021/12/03 06:37:22;;;;;;;;;6.00;3.50;;;;;18.68;34.37;101031.09;5074985;27;51740;-42
2021/12/03 06:39:47;;;;;;;;;5.75;5.75;;;;;18.64;33.98;101030.63;5074090;27;51036;-41
2021/12/03 06:42:13;;;;;;;;;4.75;4.00;;;;;18.65;34.22;101031.47;5071547;28;51737;-51
2021/12/03 06:44:38;;;;;;;;;3.75;3.25;;;;;18.69;34.19;101028.13;5072292;27;51264;-41
2021/12/03 06:47:04;;;;;;;;;5.75;4.00;;;;;18.78;33.99;101031.53;5075628;27;51292;-42
2021/12/03 06:49:30;;;;;;;;;4.75;4.00;;;;;18.87;34.35;101035.78;5079549;27;51192;-42
2021/12/03 06:52:03;;;;;;;;;6.25;3.00;;;;;18.96;34.52;101031.78;5078111;27;51062;-41
2021/12/03 06:54:31;;;;;;;;;5.00;3.75;;;;;19.06;34.70;101027.78;5077551;27;51136;-42
2021/12/03 06:56:58;;;;;;;;;4.00;4.00;;;;;19.14;34.70;101030.34;5076313;27;51806;-42
2021/12/03 06:59:24;;;;;;;;;4.75;4.00;;;;;19.22;34.49;101022.75;5076636;27;52828;-43
2021/12/03 07:01:50;;;;;;;;;4.00;2.75;;;;;19.31;34.75;101020.66;5072567;27;51293;-41
2021/12/03 07:04:16;;;;;;;;;2.00;2.00;;;;;19.39;34.78;101016.88;5076462;27;51329;-41
2021/12/03 07:06:42;;;;;;;;;4.50;3.75;;;;;19.47;35.53;101022.13;5088442;27;54462;-42
2021/12/03 07:09:08;;;;;;;;;2.75;2.75;;;;;19.55;34.99;101017.28;5073478;28;50897;-41
2021/12/03 07:11:33;;;;;;;;;1.25;1.25;;;;;19.65;35.03;101021.53;5078181;27;51088;-42
2021/12/03 07:13:59;;;;;;;;;3.00;2.00;;;;;19.72;35.12;101017.72;5077576;27;50960;-41
2021/12/03 07:16:25;;;;;;;;;3.25;2.00;;;;;19.81;35.34;101026.59;5071977;27;51113;-42
2021/12/03 07:18:51;;;;;;;;;2.00;2.00;;;;;19.89;35.22;101009.84;5075751;27;51260;-42
2021/12/03 07:21:16;;;;;;;;;2.50;2.50;;;;;19.96;35.18;101013.44;5075310;28;51717;-41
2021/12/03 07:23:42;;;;;;;;;2.50;1.00;;;;;20.03;35.32;101000.53;5070473;27;51137;-42
2021/12/03 07:26:08;;;;;;;;;2.75;2.75;;;;;20.07;35.73;100998.19;5080046;27;51955;-41
2021/12/03 07:28:34;;;;;;;;;5.00;3.00;;;;;20.10;35.90;100997.75;5072898;27;51135;-42
2021/12/03 07:31:00;;;;;;;;;1.25;1.00;;;;;20.14;35.89;101005.38;5072034;28;50964;-42
2021/12/03 07:33:28;;;;;;;;;2.00;2.00;;;;;20.18;36.25;101005.75;5074760;27;51059;-41
2021/12/03 07:35:54;;;;;;;;;1.50;1.50;;;;;20.23;36.45;101010.63;5085771;27;51870;-41
2021/12/03 07:38:19;;;;;;;;;1.75;1.75;;;;;20.28;36.82;101010.81;5078330;27;51101;-41
2021/12/03 07:40:46;;;;;;;;;3.25;2.00;;;;;20.30;36.31;101014.19;5065681;27;53018;-40
2021/12/03 07:43:12;;;;;;;;;4.75;3.25;;;;;20.36;36.35;101024.34;5064687;27;51474;-42
2021/12/03 07:45:38;;;;;;;;;1.75;1.00;;;;;20.41;36.88;101016.25;5071795;27;51057;-42
2021/12/03 07:48:05;;;;;;;;;3.00;3.00;;;;;20.46;36.69;101019.25;5064127;28;51080;-42
2021/12/03 07:50:34;;;;;;;;;2.00;2.00;;;;;20.52;36.52;101017.53;5073491;27;51185;-42
2021/12/03 07:52:59;;;;;;;;;3.00;3.00;;;;;20.57;36.80;101024.06;5070176;27;51201;-43
2021/12/03 07:55:25;;;;;;;;;2.50;1.50;;;;;20.61;36.62;101022.56;5072681;27;51067;-46
2021/12/03 07:57:52;;;;;;;;;1.75;1.50;;;;;20.66;36.81;101014.50;5071480;27;51073;-41
2021/12/03 08:00:18;;;;;;;;;3.00;3.00;;;;;20.74;36.53;101017.00;5072804;27;52884;-40
2021/12/03 08:02:43;;;;;;;;;4.75;2.50;;;;;20.79;36.86;101004.47;5069699;27;51329;-40
2021/12/03 08:05:09;;;;;;;;;4.00;3.50;;;;;20.80;36.18;101004.25;5081515;27;51153;-41
2021/12/03 08:07:35;;;;;;;;;4.50;2.25;;;;;20.82;35.95;100999.38;5077770;27;50957;-40
2021/12/03 08:10:00;;;;;;;;;3.00;3.00;;;;;20.85;36.42;101001.69;5079179;27;51076;-41
2021/12/03 08:12:25;;;;;;;;;5.00;3.50;;;;;20.87;36.55;101004.22;5088943;27;51031;-41
2021/12/03 08:14:51;;;;;;;;;3.75;3.75;;;;;20.84;36.67;101000.03;5090329;27;51749;-41
2021/12/03 08:17:16;;;;;;;;;3.00;2.50;;;;;20.81;36.47;101005.94;5076738;27;51023;-46
2021/12/03 08:19:42;;;;;;;;;3.50;3.00;;;;;20.74;36.73;101000.50;5058935;27;51032;-40
2021/12/03 08:22:07;;;;;;;;;4.00;3.50;;;;;20.67;37.09;100994.16;5062848;28;51321;-41
2021/12/03 08:24:33;;;;;;;;;5.50;3.50;;;;;20.60;37.27;101006.25;5084948;27;51980;-43
2021/12/03 08:27:00;;;;;;;;;2.50;2.50;;;;;20.53;37.30;100988.94;5108245;27;50973;-41
2021/12/03 08:29:25;;;;;;;;;3.75;3.00;;;;;20.43;37.60;101009.53;5094090;27;51150;-41
2021/12/03 08:31:51;;;;;;;;;2.00;2.00;;;;;20.37;37.81;100999.34;5075300;27;51038;-41
2021/12/03 08:34:16;;;;;;;;;2.50;2.50;;;;;20.31;38.34;100996.63;5088460;27;51028;-41
2021/12/03 08:36:41;;;;;;;;;3.00;3.00;;;;;20.24;38.26;100993.91;5098836;27;51062;-41
2021/12/03 08:39:07;;;;;;;;;4.00;2.50;;;;;20.17;38.22;100993.91;5086623;27;51441;-41
2021/12/03 08:41:34;;;;;;;;;7.00;4.00;;;;;20.11;38.59;100988.44;5083186;27;50960;-41
2021/12/03 08:44:00;;;;;;;;;2.75;2.00;;;;;20.06;38.96;101002.00;5088967;27;51078;-41
2021/12/03 08:46:32;;;;;;;;;3.00;3.00;;;;;20.00;38.90;100998.19;5097205;27;51055;-41
2021/12/03 08:49:26;;;;;;;;;3.50;2.50;;;;;19.97;38.99;100995.03;5090103;27;51467;-41
2021/12/03 08:52:09;;;;;;;;;4.50;3.00;;;;;19.91;38.94;100995.91;5111143;27;51053;-41
2021/12/03 08:54:49;;;;;;;;;1.50;1.50;;;;;19.86;39.39;100991.03;5089315;27;51196;-41
2021/12/03 08:57:15;;;;;;;;;4.25;1.25;;;;;19.80;39.69;101012.00;5095479;27;50993;-41
2021/12/03 08:59:41;;;;;;;;;3.00;2.75;;;;;19.77;39.42;101006.06;5099458;27;51082;-41
2021/12/03 09:02:07;;;;;;;;;1.25;1.25;;;;;19.73;39.55;101007.56;5084152;27;50890;-42
2021/12/03 09:04:32;;;;;;;;;2.00;1.75;;;;;19.70;39.60;101003.34;5095313;27;52478;-41
2021/12/03 09:07:00;;;;;;;;;3.75;3.00;;;;;19.67;39.72;101002.91;5099370;27;51144;-40
2021/12/03 09:09:26;;;;;;;;;2.00;2.00;;;;;19.62;39.98;101011.81;5077431;27;51242;-41
2021/12/03 09:11:52;;;;;;;;;1.00;1.00;;;;;19.59;40.09;100999.34;5080081;27;50953;-40
2021/12/03 09:16:52;;;;;;;;;2.75;1.75;;;;;19.52;40.17;101003.13;5095441;27;51349;-40
2021/12/03 09:19:24;;;;;;;;;2.00;2.00;;;;;19.49;40.01;100990.66;5093624;27;51191;-40
2021/12/03 09:21:49;;;;;;;;;1.50;1.50;;;;;19.47;40.54;100990.00;5093828;27;51232;-41
2021/12/03 09:24:18;;;;;;;;;4.25;2.00;;;;;19.43;40.38;100985.16;5076398;27;51364;-40
2021/12/03 09:26:43;;;;;;;;;2.25;2.25;;;;;19.39;40.46;100984.75;5091575;27;51100;-39
2021/12/03 09:29:12;;;;;;;;;1.00;1.00;;;;;19.39;40.79;100981.16;5071502;27;51109;-42
2021/12/03 09:31:42;;;;;;;;;1.75;1.75;;;;;19.38;40.27;100983.03;5081163;27;51427;-43
2021/12/03 09:34:10;;;;;;;;;4.00;2.75;;;;;19.39;39.35;100964.66;5109275;27;52261;-43
2021/12/03 09:36:41;;;;;;;;;2.25;2.25;;;;;19.45;39.49;100972.03;5085428;27;51308;-45
2021/12/03 09:39:15;;;;;;;;;2.00;2.00;;;;;19.54;39.56;100960.63;5071412;27;51028;-43
2021/12/03 09:41:41;;;;;;;;;0.00;0.00;;;;;19.65;38.80;100961.91;5080512;27;51138;-43
2021/12/03 09:44:06;;;;;;;;;2.00;2.00;;;;;19.76;39.32;100964.00;5077003;27;51807;-44
2021/12/03 09:46:32;;;;;;;;;3.50;2.50;;;;;19.86;38.90;100967.16;5078376;27;51592;-42
2021/12/03 09:52:03;;;;;;;;;2.50;2.50;;;;;20.04;39.01;100954.63;5066634;27;51406;-42
2021/12/03 09:54:29;;;;;;;;;2.00;1.00;;;;;20.14;38.77;100947.63;5069374;27;51609;-42
2021/12/03 09:57:02;;;;;;;;;3.00;1.50;;;;;20.24;38.83;100947.16;5071778;27;50885;-42
2021/12/03 09:59:57;;;;;;;;;2.00;2.00;;;;;20.33;38.45;100947.75;5071916;27;51026;-44
2021/12/03 10:03:03;;;;;;;;;5.00;2.75;;;;;20.42;38.20;100950.03;5070937;27;52395;-43
2021/12/03 10:13:36;;;;;;;;;2.00;2.00;;;;;20.78;38.12;100956.00;5071207;27;51130;-42
2021/12/03 10:18:58;;;;;;;;;2.00;2.00;;;;;20.92;38.38;100943.81;5069873;27;51260;-42
2021/12/03 10:30:11;;;;;;;;;1.75;1.75;;;;;21.17;37.93;100919.91;5074051;27;51187;-46
2021/12/03 10:33:06;;;;;;;;;1.25;1.25;;;;;21.17;38.19;100906.13;5072895;27;51572;-44
2021/12/03 10:41:11;;;;;;;;;1.00;0.75;;;;;21.02;38.11;100889.94;5069638;27;52042;-46
2021/12/03 10:54:30;;;;;;;;;3.00;1.50;;;;;21.28;37.95;100857.75;5070108;27;51333;-43
2021/12/03 11:35:46;;;;;;;;;3.00;2.25;;;;;21.43;38.31;100789.31;5067622;27;51203;-42
2021/12/03 13:13:12;;;;;;;;;4.00;3.00;;;;;21.50;39.36;100615.63;5094688;27;51270;-42
2021/12/03 14:02:36;;;;;;;;;1.00;1.00;;;;;21.61;40.55;100527.44;5090383;27;51127;-44
2021/12/03 14:05:05;;;;;;;;;2.50;1.00;;;;;21.66;40.15;100520.38;5074205;27;50997;-42
2021/12/03 14:48:42;;;;;;;;;3.00;1.25;;;;;21.51;41.37;100452.78;5068803;27;52213;-42
2021/12/03 14:56:10;;;;;;;;;0.50;0.50;;;;;21.65;41.23;100434.09;5075447;27;51872;-45
2021/12/03 15:01:18;;;;;;;;;1.00;1.00;;;;;21.64;40.77;100426.06;5072704;27;51302;-43
2021/12/03 15:22:22;;;;;;;;;0.00;0.00;;;;;21.70;41.23;100403.06;5070260;27;51108;-45
2021/12/03 15:32:32;;;;;;;;;0.50;0.50;;;;;21.58;41.64;100394.78;5072330;27;51087;-41
2021/12/03 15:35:15;;;;;;;;;0.00;0.00;;;;;21.60;41.55;100398.97;5072170;27;51512;-43
2021/12/03 15:38:10;;;;;;;;;0.00;0.00;;;;;21.64;41.45;100399.31;5071985;27;51146;-42
2021/12/03 16:04:21;;;;;;;;;1.75;0.50;;;;;21.49;41.39;100368.69;5068491;27;54295;-42
2021/12/03 16:07:07;;;;;;;;;0.00;0.00;;;;;21.52;40.77;100365.44;5072286;27;51630;-43
2021/12/03 16:09:56;;;;;;;;;0.00;0.00;;;;;21.57;41.28;100351.75;5066033;27;51299;-41
2021/12/03 16:47:04;;;;;;;;;0.50;0.00;;;;;21.53;41.36;100254.94;5075426;27;51088;-42
2021/12/03 16:52:32;;;;;;;;;0.00;0.00;;;;;21.56;41.61;100264.63;5060806;27;51537;-42
2021/12/03 16:55:00;;;;;;;;;2.00;1.00;;;;;21.63;41.81;100262.59;5069534;27;51297;-43
2021/12/03 16:57:33;;;;;;;;;0.00;0.00;;;;;21.67;41.44;100250.00;5076050;27;51604;-41
2021/12/03 17:00:12;;;;;;;;;0.00;0.00;;;;;21.70;41.60;100238.50;5076535;27;51378;-42
2021/12/03 17:02:45;;;;;;;;;1.00;1.00;;;;;21.69;41.60;100242.34;5074124;27;51287;-41
2021/12/03 17:05:26;;;;;;;;;1.00;1.00;;;;;21.67;41.90;100232.63;5074973;27;51521;-41
2021/12/03 17:16:13;;;;;;;;;1.75;1.75;;;;;21.64;41.41;100213.81;5074839;27;51130;-42
2021/12/03 17:51:10;;;;;;;;;2.50;2.00;;;;;21.77;42.27;100178.50;5074185;27;51350;-47
2021/12/03 17:56:17;;;;;;;;;4.00;2.00;;;;;21.71;42.57;100167.66;5070066;27;51020;-42
2021/12/03 17:58:51;;;;;;;;;3.00;2.00;;;;;21.75;42.27;100153.13;5084787;27;51621;-42
2021/12/03 18:01:21;;;;;;;;;4.25;1.50;;;;;21.84;42.42;100148.88;5085405;27;52936;-44
2021/12/03 18:44:26;;;;;;;;;2.75;2.75;;;;;21.78;42.10;100064.44;5074749;27;51104;-45
2021/12/03 18:50:05;;;;;;;;;5.00;3.25;;;;;21.76;41.71;100049.19;5073186;27;51249;-40
2021/12/03 18:55:09;;;;;;;;;4.50;4.25;;;;;21.85;41.51;100043.03;5077193;27;51802;-39